Time;durP1;ratioP1;P1;durP2;ratioP2;P2;SDS_P1;SDS_P2;PMS_P1;PMS_P2;Temp;Humidity;BMP_temperature;BMP_pressure;BME280_temperature;BME280_humidity;BME280_pressure;Samples;Min_cycle;Max_cycle;Signal;HPM_P1;HPM_P2
2022/10/18 00:01:36;;;;;;;9.15;5.20;;;16.80;91.10;;;;;;5093147;28;20040;-85
2022/10/18 00:04:02;;;;;;;8.27;5.03;;;16.80;91.10;;;;;;5060095;28;20090;-85
2022/10/18 00:06:28;;;;;;;8.48;5.50;;;16.80;91.00;;;;;;5075435;28;20024;-85
2022/10/18 00:08:54;;;;;;;8.75;4.82;;;16.80;90.80;;;;;;5091723;28;20024;-85
2022/10/18 00:11:19;;;;;;;7.57;5.32;;;16.80;90.70;;;;;;5076036;28;20028;-85
2022/10/18 00:13:45;;;;;;;9.57;5.25;;;16.80;90.70;;;;;;5074781;28;20032;-85
2022/10/18 00:16:13;;;;;;;8.35;4.80;;;16.70;90.80;;;;;;5074031;28;20041;-85
2022/10/18 00:18:40;;;;;;;8.82;5.25;;;16.60;90.90;;;;;;5092211;28;20029;-85
2022/10/18 00:21:10;;;;;;;13.63;5.70;;;16.70;91.00;;;;;;5075558;28;20024;-85
2022/10/18 00:23:35;;;;;;;9.40;5.53;;;16.70;91.00;;;;;;5091756;28;20023;-85
2022/10/18 00:26:04;;;;;;;8.10;5.07;;;16.70;90.90;;;;;;5075726;28;20021;-85
2022/10/18 00:28:30;;;;;;;10.52;5.47;;;16.70;90.80;;;;;;5074290;28;20032;-85
2022/10/18 00:30:57;;;;;;;13.15;5.53;;;16.70;90.90;;;;;;5091010;28;20024;-85
2022/10/18 00:33:23;;;;;;;8.25;5.70;;;16.70;90.90;;;;;;5091184;28;20404;-85
2022/10/18 00:35:48;;;;;;;10.77;6.10;;;16.70;90.90;;;;;;5074111;28;20033;-85
2022/10/18 00:38:14;;;;;;;8.43;5.65;;;16.70;90.70;;;;;;5073566;28;20025;-85
2022/10/18 00:40:39;;;;;;;10.02;5.35;;;16.70;90.70;;;;;;5073559;28;20473;-85
2022/10/18 00:43:07;;;;;;;9.13;5.75;;;16.70;90.80;;;;;;5075273;28;20027;-85
2022/10/18 00:45:33;;;;;;;11.68;5.57;;;16.70;91.00;;;;;;5075099;28;20027;-85
2022/10/18 00:48:03;;;;;;;8.80;5.88;;;16.80;90.90;;;;;;5074813;28;20029;-85
2022/10/18 00:50:31;;;;;;;9.88;6.57;;;16.70;90.90;;;;;;5091846;28;20024;-86
2022/10/18 00:53:02;;;;;;;9.85;6.00;;;16.70;90.90;;;;;;5077007;28;20435;-85
2022/10/18 00:55:30;;;;;;;10.13;6.43;;;16.70;91.00;;;;;;5091368;28;20028;-85
2022/10/18 00:57:56;;;;;;;11.13;5.75;;;16.70;91.00;;;;;;5074244;28;20036;-85
2022/10/18 01:00:23;;;;;;;9.10;5.85;;;16.80;91.00;;;;;;5074341;28;20044;-85
2022/10/18 01:02:48;;;;;;;8.60;5.53;;;16.80;91.00;;;;;;5091956;28;20546;-85
2022/10/18 01:05:16;;;;;;;8.20;5.88;;;16.80;90.90;;;;;;5075288;28;20084;-84
2022/10/18 01:07:53;;;;;;;7.05;5.25;;;16.80;90.90;;;;;;5092986;28;20385;-85
2022/10/18 01:10:36;;;;;;;8.93;5.75;;;16.80;90.80;;;;;;5092217;28;20111;-85
2022/10/18 01:13:33;;;;;;;9.52;5.60;;;16.80;90.70;;;;;;5091950;28;20039;-85
2022/10/18 01:16:13;;;;;;;8.05;5.45;;;16.80;90.70;;;;;;5091016;28;20017;-85
2022/10/18 01:18:58;;;;;;;9.07;5.47;;;16.80;90.80;;;;;;5077615;28;20016;-85
2022/10/18 01:21:23;;;;;;;8.30;5.60;;;16.80;90.70;;;;;;5092708;28;20485;-86
2022/10/18 01:24:23;;;;;;;7.75;5.50;;;16.80;90.80;;;;;;5075230;28;20101;-85
2022/10/18 01:27:10;;;;;;;7.90;5.40;;;16.80;90.60;;;;;;5090184;28;20021;-84
2022/10/18 01:30:08;;;;;;;9.18;5.63;;;16.80;90.70;;;;;;5073081;28;20507;-85
2022/10/18 01:32:41;;;;;;;11.30;5.28;;;16.70;90.70;;;;;;5092977;28;20477;-85
2022/10/18 01:35:12;;;;;;;9.00;5.72;;;16.70;90.80;;;;;;5092728;28;20077;-84
2022/10/18 01:37:40;;;;;;;10.48;5.90;;;16.70;90.80;;;;;;5076848;28;20024;-85
2022/10/18 01:40:12;;;;;;;9.18;5.25;;;16.70;90.80;;;;;;5077544;28;20113;-85
2022/10/18 01:42:39;;;;;;;9.13;5.30;;;16.70;90.70;;;;;;5075901;28;20028;-85
2022/10/18 01:45:07;;;;;;;9.52;5.93;;;16.70;90.80;;;;;;5090673;28;20322;-85
2022/10/18 01:47:34;;;;;;;7.25;5.05;;;16.70;90.80;;;;;;5073948;28;20025;-85
2022/10/18 01:50:02;;;;;;;9.05;6.18;;;16.70;90.80;;;;;;5073475;28;20021;-85
2022/10/18 01:52:28;;;;;;;7.75;5.60;;;16.70;90.80;;;;;;5073550;28;20038;-84
2022/10/18 01:54:54;;;;;;;8.80;5.97;;;16.70;90.80;;;;;;5089892;28;20108;-85
2022/10/18 01:57:38;;;;;;;9.45;5.47;;;16.60;91.10;;;;;;5072962;28;20569;-85
2022/10/18 02:00:18;;;;;;;8.88;5.80;;;16.70;90.80;;;;;;5090095;28;20039;-84
2022/10/18 02:02:46;;;;;;;30.73;4.90;;;16.70;90.70;;;;;;5089686;28;20381;-86
2022/10/18 02:05:43;;;;;;;7.18;5.03;;;16.60;90.60;;;;;;5072609;28;20038;-85
2022/10/18 02:08:27;;;;;;;7.32;5.40;;;16.50;90.60;;;;;;5089775;28;20036;-85
2022/10/18 02:11:14;;;;;;;9.48;5.47;;;16.50;90.80;;;;;;5089168;28;20043;-85
2022/10/18 02:14:02;;;;;;;9.38;5.18;;;16.50;90.90;;;;;;5091277;28;20051;-85
2022/10/18 02:16:36;;;;;;;9.35;4.90;;;16.40;91.00;;;;;;5091726;28;20029;-85
2022/10/18 02:19:23;;;;;;;8.13;4.90;;;16.40;91.00;;;;;;5091180;28;20040;-84
2022/10/18 02:21:50;;;;;;;7.57;5.07;;;16.50;91.00;;;;;;5071996;28;20044;-85
2022/10/18 02:24:18;;;;;;;5.72;4.55;;;16.50;91.00;;;;;;5089068;28;20051;-85
2022/10/18 02:26:43;;;;;;;5.88;4.32;;;16.50;90.90;;;;;;5073867;28;20032;-85
2022/10/18 02:29:10;;;;;;;6.60;4.72;;;16.60;90.90;;;;;;5073062;28;20367;-85
2022/10/18 02:31:42;;;;;;;7.35;5.13;;;16.60;91.20;;;;;;5073886;28;20024;-85
2022/10/18 02:34:20;;;;;;;5.85;4.25;;;16.60;90.70;;;;;;5073266;28;20027;-85
2022/10/18 02:36:57;;;;;;;7.45;4.82;;;16.60;90.70;;;;;;5072554;28;20127;-85
2022/10/18 02:39:36;;;;;;;7.90;4.38;;;16.50;91.00;;;;;;5091317;28;20052;-84
2022/10/18 02:42:10;;;;;;;7.93;4.97;;;16.50;90.60;;;;;;5090662;28;20024;-85
2022/10/18 02:44:37;;;;;;;7.40;5.60;;;16.50;90.80;;;;;;5093935;28;20016;-84
2022/10/18 02:47:05;;;;;;;8.75;4.85;;;16.50;90.80;;;;;;5094130;28;20497;-84
2022/10/18 02:49:30;;;;;;;7.07;4.88;;;16.40;90.70;;;;;;5073676;28;20043;-85
2022/10/18 02:51:56;;;;;;;8.95;4.43;;;16.40;90.90;;;;;;5075230;28;20033;-85
2022/10/18 02:54:22;;;;;;;6.85;4.32;;;16.40;90.90;;;;;;5076313;28;20031;-84
2022/10/18 02:56:49;;;;;;;7.40;4.57;;;16.40;90.80;;;;;;5075441;28;20031;-85
2022/10/18 02:59:15;;;;;;;7.53;4.53;;;16.40;90.80;;;;;;5073662;28;20381;-85
2022/10/18 03:01:41;;;;;;;8.00;4.30;;;16.40;90.90;;;;;;5072475;28;20079;-85
2022/10/18 03:04:07;;;;;;;7.93;4.65;;;16.40;91.00;;;;;;5074111;28;20025;-84
2022/10/18 03:06:33;;;;;;;9.07;5.30;;;16.50;91.00;;;;;;5076414;28;20478;-84
2022/10/18 03:09:01;;;;;;;6.95;4.63;;;16.50;91.30;;;;;;5093999;28;20028;-85
2022/10/18 03:11:27;;;;;;;9.95;4.60;;;16.50;90.90;;;;;;5076316;28;20563;-85
2022/10/18 03:13:52;;;;;;;7.78;5.07;;;16.50;90.80;;;;;;5076154;28;20025;-85
2022/10/18 03:16:18;;;;;;;8.82;5.35;;;16.50;90.80;;;;;;5076769;28;20044;-85
2022/10/18 03:18:44;;;;;;;10.70;5.93;;;16.50;90.80;;;;;;5077811;28;20105;-85
2022/10/18 03:21:10;;;;;;;9.55;5.75;;;16.50;90.80;;;;;;5092751;28;20020;-84
2022/10/18 03:23:36;;;;;;;11.10;5.32;;;16.50;90.90;;;;;;5094448;28;20012;-85
2022/10/18 03:26:01;;;;;;;10.88;6.22;;;16.50;90.80;;;;;;5077835;28;20012;-85
2022/10/18 03:28:27;;;;;;;9.65;5.97;;;16.40;90.60;;;;;;5076203;28;20096;-85
2022/10/18 03:31:03;;;;;;;9.07;5.60;;;16.40;90.70;;;;;;5061201;28;20101;-85
2022/10/18 03:33:30;;;;;;;14.07;6.20;;;16.40;90.80;;;;;;5074879;28;20072;-85
2022/10/18 03:35:56;;;;;;;10.13;6.35;;;16.40;90.90;;;;;;5041524;28;20025;-85
2022/10/18 03:38:22;;;;;;;13.52;6.40;;;16.40;90.90;;;;;;5057699;28;20103;-85
2022/10/18 03:40:48;;;;;;;11.70;7.45;;;16.40;91.00;;;;;;5057725;28;20025;-85
2022/10/18 03:43:14;;;;;;;12.07;6.72;;;16.40;91.10;;;;;;5057887;28;20044;-84
2022/10/18 03:45:39;;;;;;;11.35;6.95;;;16.40;91.10;;;;;;5041210;28;20134;-86
2022/10/18 03:48:05;;;;;;;15.13;7.68;;;16.40;91.10;;;;;;5074834;28;20036;-85
2022/10/18 03:50:31;;;;;;;11.13;6.78;;;16.40;91.10;;;;;;5040930;28;20056;-85
2022/10/18 03:52:56;;;;;;;10.93;6.90;;;16.40;91.10;;;;;;5058186;28;20044;-85
2022/10/18 03:55:22;;;;;;;12.20;7.18;;;16.40;91.10;;;;;;5041419;28;20119;-85
2022/10/18 03:57:47;;;;;;;10.93;6.88;;;16.40;91.00;;;;;;5023715;28;20033;-85
2022/10/18 04:00:13;;;;;;;11.13;7.35;;;16.40;91.00;;;;;;5026034;28;20047;-85
2022/10/18 04:02:39;;;;;;;10.70;7.28;;;16.50;91.00;;;;;;5042710;28;20051;-85
2022/10/18 04:05:06;;;;;;;13.95;7.30;;;16.40;90.90;;;;;;5025988;28;20024;-84
2022/10/18 04:07:33;;;;;;;11.85;6.72;;;16.40;90.90;;;;;;5058952;28;20066;-85
2022/10/18 04:09:59;;;;;;;9.77;6.22;;;16.40;90.90;;;;;;5075493;28;20024;-84
2022/10/18 04:12:25;;;;;;;11.68;6.15;;;16.30;90.90;;;;;;5042455;28;20418;-85
2022/10/18 04:14:50;;;;;;;17.83;9.40;;;16.30;90.90;;;;;;5076823;28;20071;-85
2022/10/18 04:17:16;;;;;;;15.82;8.30;;;16.30;90.90;;;;;;5076064;28;20036;-85
2022/10/18 04:19:42;;;;;;;17.75;8.65;;;16.30;90.90;;;;;;5076828;28;20585;-85
2022/10/18 04:22:13;;;;;;;16.63;8.57;;;16.30;90.90;;;;;;5077701;28;20040;-85
2022/10/18 04:24:39;;;;;;;17.67;9.32;;;16.30;90.80;;;;;;5074889;28;20074;-85
2022/10/18 04:27:06;;;;;;;24.02;10.10;;;16.30;90.90;;;;;;5073731;28;20021;-85
2022/10/18 04:29:31;;;;;;;20.70;10.23;;;16.30;91.00;;;;;;5073648;28;20518;-85
2022/10/18 04:31:57;;;;;;;30.92;10.80;;;16.30;90.90;;;;;;5092099;28;20078;-85
2022/10/18 04:34:23;;;;;;;22.33;10.40;;;16.30;90.90;;;;;;5077964;28;20028;-84
2022/10/18 04:36:54;;;;;;;21.13;10.00;;;16.40;91.00;;;;;;5077592;28;20029;-85
2022/10/18 04:39:20;;;;;;;32.22;10.52;;;16.30;91.00;;;;;;5078306;28;20032;-85
2022/10/18 04:41:45;;;;;;;29.08;9.07;;;16.20;91.10;;;;;;5077048;28;20463;-85
2022/10/18 04:44:11;;;;;;;22.13;9.02;;;16.20;91.10;;;;;;5074829;28;20036;-84
2022/10/18 04:46:36;;;;;;;22.38;9.80;;;16.20;91.20;;;;;;5074180;28;20029;-85
2022/10/18 04:49:03;;;;;;;19.02;9.75;;;16.20;91.10;;;;;;5074376;28;20060;-85
2022/10/18 04:51:29;;;;;;;20.60;9.43;;;16.20;91.20;;;;;;5076828;28;20454;-85
2022/10/18 04:53:57;;;;;;;28.52;9.65;;;16.20;91.10;;;;;;5078760;28;20374;-85
2022/10/18 04:56:23;;;;;;;20.65;9.13;;;16.20;91.10;;;;;;5076913;28;20066;-85
2022/10/18 04:58:49;;;;;;;20.95;9.55;;;16.20;91.20;;;;;;5074427;28;20115;-86
2022/10/18 05:01:15;;;;;;;28.63;9.45;;;16.30;91.20;;;;;;5073787;28;20516;-85
2022/10/18 05:03:41;;;;;;;22.20;9.85;;;16.20;91.50;;;;;;5076426;28;20059;-85
2022/10/18 05:06:07;;;;;;;22.38;10.68;;;16.20;91.10;;;;;;5077447;28;20025;-85
2022/10/18 05:08:35;;;;;;;23.10;11.20;;;16.20;91.20;;;;;;5076323;28;20027;-86
2022/10/18 05:11:03;;;;;;;24.60;10.80;;;16.30;91.30;;;;;;5076409;28;20033;-86
2022/10/18 05:13:30;;;;;;;34.35;10.27;;;16.30;91.30;;;;;;5092937;28;20445;-85
2022/10/18 05:15:58;;;;;;;44.00;11.07;;;16.30;91.20;;;;;;5074398;28;20486;-85
2022/10/18 05:18:23;;;;;;;24.05;9.88;;;16.20;91.20;;;;;;5073472;28;20435;-85
2022/10/18 05:20:49;;;;;;;38.28;10.10;;;16.20;91.20;;;;;;5074536;28;20099;-86
2022/10/18 05:23:14;;;;;;;29.60;9.77;;;16.20;91.20;;;;;;5076852;28;20056;-85
2022/10/18 05:25:43;;;;;;;25.17;9.85;;;16.20;91.30;;;;;;5060643;28;20020;-85
2022/10/18 05:28:09;;;;;;;28.67;10.90;;;16.20;91.40;;;;;;5091470;28;20392;-86
2022/10/18 05:30:39;;;;;;;24.52;11.38;;;16.20;91.40;;;;;;5092950;28;20392;-85
2022/10/18 05:33:05;;;;;;;21.75;10.73;;;16.20;91.40;;;;;;5091165;28;20449;-84
2022/10/18 05:35:30;;;;;;;26.98;11.10;;;16.20;91.40;;;;;;5092948;28;20062;-85
2022/10/18 05:37:56;;;;;;;31.38;9.57;;;16.30;91.40;;;;;;5093742;28;20077;-85
2022/10/18 05:40:22;;;;;;;24.42;11.02;;;16.30;91.40;;;;;;5059105;28;20381;-85
2022/10/18 05:42:51;;;;;;;24.65;11.00;;;16.30;91.40;;;;;;5075908;28;20032;-85
2022/10/18 05:45:18;;;;;;;30.45;11.40;;;16.30;91.40;;;;;;5075898;28;20043;-85
2022/10/18 05:47:43;;;;;;;35.03;10.90;;;16.20;91.50;;;;;;5090977;28;20027;-85
2022/10/18 05:50:09;;;;;;;24.70;11.43;;;16.20;91.50;;;;;;5057476;28;20035;-85
2022/10/18 05:52:35;;;;;;;22.92;12.00;;;16.20;91.50;;;;;;5074446;28;20381;-85
2022/10/18 05:55:00;;;;;;;24.17;11.35;;;16.20;91.60;;;;;;5091904;28;20024;-84
2022/10/18 05:57:26;;;;;;;24.50;11.38;;;16.30;91.60;;;;;;5074156;28;20035;-83
2022/10/18 05:59:52;;;;;;;24.40;10.85;;;16.30;91.60;;;;;;5058299;28;20494;-84
2022/10/18 06:02:18;;;;;;;28.38;12.40;;;16.30;91.60;;;;;;5058178;28;20044;-85
2022/10/18 06:04:44;;;;;;;22.67;11.25;;;16.30;91.50;;;;;;5092002;28;20480;-85
2022/10/18 06:07:10;;;;;;;36.10;11.55;;;16.30;91.50;;;;;;5059083;28;20020;-84
2022/10/18 06:09:37;;;;;;;27.13;12.10;;;16.30;91.50;;;;;;5092327;28;20493;-84
2022/10/18 06:12:04;;;;;;;20.85;11.93;;;16.30;91.60;;;;;;5092227;28;20016;-85
2022/10/18 06:14:30;;;;;;;23.20;11.90;;;16.30;91.50;;;;;;5075596;28;20030;-85
2022/10/18 06:16:56;;;;;;;22.95;11.40;;;16.30;91.50;;;;;;5092225;28;20115;-85
2022/10/18 06:19:22;;;;;;;26.35;11.57;;;16.40;91.50;;;;;;5092554;28;20020;-84
2022/10/18 06:21:48;;;;;;;23.00;11.40;;;16.30;91.50;;;;;;5075944;28;20020;-84
2022/10/18 06:24:14;;;;;;;20.90;11.80;;;16.30;91.50;;;;;;5077011;28;20551;-85
2022/10/18 06:26:43;;;;;;;26.67;11.75;;;16.30;91.50;;;;;;5076958;28;20060;-85
2022/10/18 06:29:08;;;;;;;23.40;11.70;;;16.40;91.50;;;;;;5095303;28;20032;-85
2022/10/18 06:31:35;;;;;;;22.73;11.25;;;16.40;91.50;;;;;;5093913;28;20039;-85
2022/10/18 06:34:01;;;;;;;28.65;12.38;;;16.40;91.50;;;;;;5059662;28;20381;-85
2022/10/18 06:36:27;;;;;;;23.55;11.82;;;16.40;91.50;;;;;;5093658;28;20088;-84
2022/10/18 06:38:55;;;;;;;25.75;12.18;;;16.40;91.50;;;;;;5094532;28;20061;-85
2022/10/18 06:41:21;;;;;;;21.15;11.18;;;16.40;91.50;;;;;;5096967;28;20028;-85
2022/10/18 06:43:52;;;;;;;50.55;12.60;;;16.40;91.40;;;;;;5096932;28;20024;-85
2022/10/18 06:46:18;;;;;;;28.40;11.48;;;16.40;91.40;;;;;;5096781;28;20027;-85
2022/10/18 06:48:44;;;;;;;21.65;11.02;;;16.40;91.40;;;;;;5098132;28;20024;-85
2022/10/18 06:51:14;;;;;;;22.45;11.23;;;16.40;91.40;;;;;;5096555;28;20086;-85
2022/10/18 06:53:40;;;;;;;23.80;11.25;;;16.40;91.40;;;;;;5079722;28;20028;-85
2022/10/18 06:56:08;;;;;;;24.95;11.85;;;16.40;91.50;;;;;;5079305;28;20100;-85
2022/10/18 06:58:35;;;;;;;28.38;11.15;;;16.40;91.50;;;;;;5097525;28;20031;-85
2022/10/18 07:01:11;;;;;;;31.58;10.82;;;16.40;91.50;;;;;;5101454;28;20122;-85
2022/10/18 07:03:38;;;;;;;29.40;11.55;;;16.40;91.40;;;;;;5098966;28;20019;-85
2022/10/18 07:06:06;;;;;;;23.92;11.40;;;16.40;91.50;;;;;;5065780;28;20503;-84
2022/10/18 07:08:32;;;;;;;22.95;11.20;;;16.40;91.50;;;;;;5101811;28;20016;-85
2022/10/18 07:10:58;;;;;;;23.00;10.45;;;16.30;91.50;;;;;;5102996;28;20016;-86
2022/10/18 07:13:26;;;;;;;27.15;11.07;;;16.30;91.50;;;;;;5087184;28;20031;-85
2022/10/18 07:16:04;;;;;;;21.42;10.30;;;16.30;91.50;;;;;;5086587;28;20169;-86
2022/10/18 07:18:34;;;;;;;26.63;10.30;;;16.30;91.40;;;;;;5103555;28;20039;-86
2022/10/18 07:21:05;;;;;;;19.45;9.50;;;16.30;91.80;;;;;;5086659;28;20032;-85
2022/10/18 07:23:32;;;;;;;20.42;9.95;;;16.30;91.40;;;;;;5084850;28;20113;-85
2022/10/18 07:25:59;;;;;;;24.70;10.65;;;16.30;91.50;;;;;;5103360;28;20026;-85
2022/10/18 07:28:28;;;;;;;23.42;10.93;;;16.30;91.50;;;;;;5101904;28;20136;-84
2022/10/18 07:30:54;;;;;;;23.90;10.55;;;16.30;91.50;;;;;;5070179;28;20023;-85
2022/10/18 07:33:19;;;;;;;23.98;9.95;;;16.40;91.50;;;;;;5085148;28;20031;-85
2022/10/18 07:35:46;;;;;;;24.60;11.13;;;16.30;91.40;;;;;;5082710;28;20032;-86
2022/10/18 07:38:12;;;;;;;23.10;10.52;;;16.40;91.50;;;;;;5082697;28;20032;-85
2022/10/18 07:40:38;;;;;;;25.50;11.27;;;16.40;91.50;;;;;;5082488;28;20177;-85
2022/10/18 07:43:03;;;;;;;21.60;10.38;;;16.40;91.50;;;;;;5082141;28;20047;-85
2022/10/18 07:45:30;;;;;;;22.83;10.05;;;16.40;91.50;;;;;;5081888;28;20072;-85
2022/10/18 07:47:56;;;;;;;26.23;10.73;;;16.40;91.90;;;;;;5082805;28;20526;-85
2022/10/18 07:50:23;;;;;;;22.02;11.25;;;16.40;91.50;;;;;;5067744;28;20024;-85
2022/10/18 07:52:49;;;;;;;24.65;9.65;;;16.40;91.50;;;;;;5083862;28;20519;-85
2022/10/18 07:55:15;;;;;;;23.33;10.85;;;16.40;91.50;;;;;;5068192;28;20024;-85
2022/10/18 07:57:40;;;;;;;27.13;10.63;;;16.40;91.50;;;;;;5082925;28;20023;-85
2022/10/18 08:00:07;;;;;;;25.35;10.48;;;16.30;91.30;;;;;;5100097;28;20084;-85
2022/10/18 08:02:33;;;;;;;21.40;10.18;;;16.30;91.40;;;;;;5068202;28;20501;-84
2022/10/18 08:04:59;;;;;;;22.98;10.02;;;16.30;91.40;;;;;;5084246;28;20045;-85
2022/10/18 08:07:25;;;;;;;19.55;9.85;;;16.30;91.40;;;;;;5085690;28;20044;-85
2022/10/18 08:09:54;;;;;;;25.00;11.25;;;16.30;91.40;;;;;;5068667;28;20495;-85
2022/10/18 08:12:20;;;;;;;25.40;11.30;;;16.30;91.30;;;;;;5068024;28;20092;-86
2022/10/18 08:14:48;;;;;;;26.27;11.93;;;16.30;91.30;;;;;;5085351;28;20031;-84
2022/10/18 08:17:14;;;;;;;22.83;11.30;;;16.40;91.40;;;;;;5100316;28;20112;-85
2022/10/18 08:19:39;;;;;;;31.38;12.60;;;16.40;91.40;;;;;;5065607;28;20032;-85
2022/10/18 08:22:05;;;;;;;25.33;12.30;;;16.40;91.40;;;;;;5082856;28;20096;-84
2022/10/18 08:24:31;;;;;;;27.73;12.80;;;16.40;91.30;;;;;;5067181;28;20024;-84
2022/10/18 08:26:56;;;;;;;29.10;12.48;;;16.40;91.30;;;;;;5065688;28;20026;-84
2022/10/18 08:29:22;;;;;;;22.55;11.60;;;16.40;91.30;;;;;;5082922;28;20051;-85
2022/10/18 08:31:49;;;;;;;31.42;13.00;;;16.40;91.30;;;;;;5065916;28;20032;-84
2022/10/18 08:34:15;;;;;;;24.70;12.25;;;16.50;91.40;;;;;;5082276;28;20028;-85
2022/10/18 08:36:41;;;;;;;29.38;12.98;;;16.50;91.30;;;;;;5065089;28;20515;-85
2022/10/18 08:39:06;;;;;;;28.10;12.95;;;16.50;91.30;;;;;;5099192;28;20028;-85
2022/10/18 08:41:48;;;;;;;27.15;12.23;;;16.50;91.30;;;;;;5066761;28;20031;-85
2022/10/18 08:44:23;;;;;;;26.53;12.63;;;16.60;91.20;;;;;;5118603;28;20020;-85
2022/10/18 08:47:03;;;;;;;25.15;11.30;;;16.50;91.30;;;;;;5118698;28;20774;-85
2022/10/18 08:49:31;;;;;;;27.48;11.98;;;16.60;91.30;;;;;;5101550;28;20508;-85
2022/10/18 08:51:57;;;;;;;25.50;11.30;;;16.60;91.20;;;;;;5100989;28;20110;-85
2022/10/18 08:54:58;;;;;;;29.60;11.88;;;16.60;91.50;;;;;;5083546;28;20053;-85
2022/10/18 08:57:24;;;;;;;29.70;11.95;;;16.60;91.10;;;;;;5025603;28;20120;-84
2022/10/18 08:59:53;;;;;;;23.77;10.32;;;16.60;91.10;;;;;;5083139;28;20542;-85
2022/10/18 09:03:00;;;;;;;28.35;11.25;;;16.70;91.00;;;;;;5065912;28;20044;-84
2022/10/18 09:05:57;;;;;;;24.95;11.40;;;16.70;91.10;;;;;;5096477;28;20491;-85
2022/10/18 09:08:26;;;;;;;27.75;11.85;;;16.90;91.10;;;;;;5098051;28;20028;-84
2022/10/18 09:11:03;;;;;;;23.45;10.50;;;16.90;91.00;;;;;;5099821;28;20373;-85
2022/10/18 09:13:56;;;;;;;22.80;12.13;;;17.00;90.80;;;;;;5100011;28;20023;-84
2022/10/18 09:16:41;;;;;;;22.73;11.00;;;17.00;90.60;;;;;;5097116;28;20123;-85
2022/10/18 09:19:16;;;;;;;29.95;12.02;;;17.00;90.50;;;;;;5097205;28;20019;-84
2022/10/18 09:22:00;;;;;;;23.00;11.00;;;17.10;90.50;;;;;;5097273;28;20019;-85
2022/10/18 09:24:44;;;;;;;25.85;11.13;;;17.20;90.60;;;;;;5096681;28;20066;-85
2022/10/18 09:27:16;;;;;;;22.88;10.85;;;17.40;90.90;;;;;;5096422;28;20069;-85
2022/10/18 09:29:57;;;;;;;30.63;12.18;;;17.50;90.40;;;;;;5095970;28;20122;-84
2022/10/18 09:32:37;;;;;;;22.58;10.20;;;17.70;90.30;;;;;;5095187;28;20076;-85
2022/10/18 09:35:23;;;;;;;19.85;10.80;;;17.80;90.00;;;;;;5114339;28;20027;-85
2022/10/18 09:37:57;;;;;;;23.08;10.23;;;18.00;88.80;;;;;;5096075;28;20036;-84
2022/10/18 09:40:27;;;;;;;22.83;10.15;;;18.00;88.20;;;;;;5095805;28;20062;-84
2022/10/18 09:42:59;;;;;;;19.35;10.48;;;18.10;88.80;;;;;;5096264;28;20051;-84
2022/10/18 09:45:29;;;;;;;18.13;8.27;;;18.30;87.50;;;;;;5095889;28;20077;-84
2022/10/18 09:48:02;;;;;;;18.10;9.20;;;18.40;87.00;;;;;;5096112;28;20028;-85
2022/10/18 09:51:05;;;;;;;18.83;9.43;;;18.50;86.50;;;;;;5115502;28;20080;-85
2022/10/18 09:54:03;;;;;;;16.40;8.88;;;18.50;84.80;;;;;;5095552;28;20077;-84
2022/10/18 09:56:35;;;;;;;22.25;9.57;;;18.60;85.30;;;;;;5082750;28;20103;-84
2022/10/18 09:59:00;;;;;;;20.17;7.93;;;18.70;84.50;;;;;;5094964;28;20071;-85
2022/10/18 10:01:29;;;;;;;17.75;8.82;;;18.80;83.90;;;;;;5078676;28;20119;-84
2022/10/18 10:03:55;;;;;;;18.05;8.63;;;18.90;82.80;;;;;;5102532;28;20098;-85
2022/10/18 10:06:29;;;;;;;17.60;8.38;;;19.00;82.60;;;;;;5102057;27;20049;-84
2022/10/18 10:09:03;;;;;;;17.98;7.93;;;19.10;82.60;;;;;;5121405;27;20030;-84
2022/10/18 10:11:31;;;;;;;16.60;7.43;;;19.10;81.50;;;;;;5120750;27;20496;-84
2022/10/18 10:14:09;;;;;;;15.07;6.80;;;19.20;81.50;;;;;;5118207;27;20038;-85
2022/10/18 10:17:08;;;;;;;15.73;6.88;;;19.20;79.20;;;;;;5115889;27;20019;-85
2022/10/18 10:19:38;;;;;;;8.73;4.10;;;19.30;80.20;;;;;;5111817;28;20035;-85
2022/10/18 10:22:12;;;;;;;10.38;4.07;;;19.40;79.10;;;;;;5115819;28;20011;-85
2022/10/18 10:24:46;;;;;;;10.18;4.45;;;19.50;78.60;;;;;;5115785;28;20027;-85
2022/10/18 10:27:30;;;;;;;11.45;2.45;;;19.50;78.70;;;;;;5134204;28;20098;-85
2022/10/18 10:29:58;;;;;;;8.05;2.17;;;19.60;77.20;;;;;;5115868;28;20029;-84
2022/10/18 10:32:28;;;;;;;7.03;2.60;;;19.70;76.60;;;;;;5116456;28;20028;-85
2022/10/18 10:34:54;;;;;;;6.20;2.15;;;19.80;76.00;;;;;;5134644;28;20020;-84
2022/10/18 10:37:40;;;;;;;6.72;2.83;;;19.80;75.10;;;;;;5081880;28;20373;-85
2022/10/18 10:40:07;;;;;;;8.85;2.83;;;19.90;74.50;;;;;;5133422;28;20031;-85
2022/10/18 10:42:59;;;;;;;10.98;3.72;;;19.90;75.30;;;;;;5116108;28;20499;-84
2022/10/18 10:45:30;;;;;;;7.97;3.15;;;20.00;75.40;;;;;;5104839;28;20027;-84
2022/10/18 10:48:04;;;;;;;12.60;3.92;;;20.00;75.30;;;;;;5115777;28;20046;-84
2022/10/18 10:50:31;;;;;;;7.68;2.67;;;20.10;74.80;;;;;;5115875;28;20015;-85
2022/10/18 10:52:57;;;;;;;8.43;3.15;;;20.10;74.20;;;;;;5074956;28;20031;-85
2022/10/18 10:55:30;;;;;;;10.82;4.53;;;20.20;73.50;;;;;;5074892;28;20035;-85
2022/10/18 10:57:56;;;;;;;12.77;4.93;;;20.30;74.40;;;;;;5074693;28;20024;-85
2022/10/18 11:00:51;;;;;;;8.55;5.07;;;20.30;74.30;;;;;;5075546;28;20035;-84
2022/10/18 11:03:19;;;;;;;11.10;3.95;;;20.30;72.80;;;;;;5066139;28;20070;-84
2022/10/18 11:05:56;;;;;;;12.82;4.53;;;20.40;73.00;;;;;;5074469;28;20085;-85
2022/10/18 11:08:25;;;;;;;8.55;3.72;;;20.50;71.90;;;;;;5074992;28;20036;-85
2022/10/18 11:11:08;;;;;;;6.93;2.30;;;20.50;71.90;;;;;;5075054;28;20055;-84
2022/10/18 11:13:52;;;;;;;7.03;2.33;;;20.50;70.70;;;;;;5093498;28;20024;-85
2022/10/18 11:16:28;;;;;;;7.40;2.50;;;20.60;70.00;;;;;;5074934;28;20023;-85
2022/10/18 11:19:01;;;;;;;4.65;2.60;;;20.60;69.50;;;;;;5074876;28;20500;-85
2022/10/18 11:21:30;;;;;;;7.43;3.03;;;20.70;69.00;;;;;;5093016;28;20021;-86
2022/10/18 11:23:56;;;;;;;9.85;3.55;;;20.70;69.40;;;;;;5074899;28;20068;-85
2022/10/18 11:26:37;;;;;;;9.88;2.90;;;20.70;70.00;;;;;;5076614;28;20020;-85
2022/10/18 11:29:23;;;;;;;7.40;2.22;;;20.80;70.10;;;;;;5096811;28;20024;-85
2022/10/18 11:32:11;;;;;;;6.30;2.17;;;20.90;69.20;;;;;;5078432;28;20086;-85
2022/10/18 11:35:04;;;;;;;5.82;2.10;;;20.90;68.30;;;;;;5077975;28;20028;-84
2022/10/18 11:37:50;;;;;;;5.85;1.90;;;21.00;68.80;;;;;;5076228;28;20033;-85
2022/10/18 11:40:32;;;;;;;5.60;2.25;;;21.00;67.90;;;;;;5098778;27;20024;-85
2022/10/18 11:43:04;;;;;;;7.85;1.98;;;21.10;67.20;;;;;;5137436;27;20023;-85
2022/10/18 11:45:59;;;;;;;2.60;1.15;;;21.10;66.80;;;;;;5119132;27;20073;-85
2022/10/18 11:48:57;;;;;;;5.03;1.20;;;21.20;66.50;;;;;;5117697;27;20019;-84
2022/10/18 11:51:32;;;;;;;9.52;2.10;;;21.20;65.20;;;;;;5097534;28;20496;-85
2022/10/18 11:54:16;;;;;;;3.38;1.33;;;21.20;64.70;;;;;;5112204;28;20049;-85
2022/10/18 11:56:52;;;;;;;5.55;1.65;;;21.20;65.30;;;;;;5089761;28;20032;-85
2022/10/18 11:59:26;;;;;;;5.95;2.10;;;21.30;65.10;;;;;;5086184;28;20497;-85
2022/10/18 12:02:14;;;;;;;8.55;2.55;;;21.40;64.90;;;;;;5104063;28;20576;-85
2022/10/18 12:04:50;;;;;;;7.85;2.25;;;21.50;64.50;;;;;;5088756;28;20450;-85
2022/10/18 12:07:19;;;;;;;5.05;2.17;;;21.50;64.50;;;;;;5116176;28;20070;-85
2022/10/18 12:09:49;;;;;;;5.40;1.88;;;21.50;64.70;;;;;;5123503;27;20019;-85
2022/10/18 12:12:18;;;;;;;5.05;2.05;;;21.60;64.90;;;;;;5118465;27;20027;-85
2022/10/18 12:14:51;;;;;;;6.15;1.95;;;21.60;62.90;;;;;;5118204;27;20090;-85
2022/10/18 12:17:47;;;;;;;5.85;1.80;;;21.60;63.10;;;;;;5118203;27;20023;-85
2022/10/18 12:20:38;;;;;;;6.07;1.90;;;21.70;62.40;;;;;;5119065;27;20023;-85
2022/10/18 12:23:21;;;;;;;5.38;1.42;;;21.70;62.80;;;;;;5118879;27;20027;-85
2022/10/18 12:25:55;;;;;;;3.95;1.15;;;21.70;62.50;;;;;;5117628;27;20106;-85
2022/10/18 12:28:30;;;;;;;5.15;1.10;;;21.70;61.60;;;;;;5136722;27;20032;-85
2022/10/18 12:31:19;;;;;;;4.13;1.23;;;21.70;61.50;;;;;;5118251;27;20029;-86
2022/10/18 12:33:49;;;;;;;6.80;1.45;;;21.70;61.80;;;;;;5117493;27;20448;-85
2022/10/18 12:36:21;;;;;;;5.45;1.75;;;21.70;61.90;;;;;;5135792;27;20496;-84
2022/10/18 12:38:52;;;;;;;7.13;1.60;;;21.70;61.60;;;;;;5136015;27;20023;-85
2022/10/18 12:41:29;;;;;;;7.13;1.50;;;21.70;61.70;;;;;;5117727;27;20494;-85
2022/10/18 12:44:36;;;;;;;8.15;1.45;;;21.60;61.40;;;;;;5117096;27;20023;-85
2022/10/18 12:47:04;;;;;;;6.68;1.40;;;21.50;60.60;;;;;;5096700;28;20047;-84
2022/10/18 12:49:36;;;;;;;5.95;1.50;;;21.40;61.10;;;;;;5097649;28;20066;-85
2022/10/18 12:52:17;;;;;;;6.88;1.33;;;21.40;61.10;;;;;;5097125;28;20031;-85
2022/10/18 12:55:02;;;;;;;7.45;1.92;;;21.40;61.30;;;;;;5115263;28;20527;-85
2022/10/18 12:57:50;;;;;;;5.60;1.50;;;21.40;60.50;;;;;;5115403;28;20489;-85
2022/10/18 13:00:48;;;;;;;6.47;1.52;;;21.50;60.80;;;;;;5115390;28;20076;-85